Ursel Air Base

EBUL · Oost-Vlaanderen, Flanders, 比利时

使用的METAR站距离机场35 km。
罗盘
风向 的 风向 的 风向 到 风向 290° Ursel Air Base 7/25
风: 5 kt, 2 beaufort

4 kt

3 kt
改变
0 ft 1.000 2.000 3.000 4.000 5.000
Cloud Cloud
FEW 3.200
METAR EHFS 250025Z AUTO 29005KT 260V320 9999 FEW032/// 05/02 Q1009

METAR Ursel Air Base - EBUL

Ursel Air Base是,比利时中的小机场。 该机场位于纬度51,14510和经度3,47805。 该机场有一条跑道: 7/25. 本场的ICAO机场代码为EBUL。 机场在Amsterdam FIR中。

该航空气象观测是针对Vlissingen在2024年4月25日 02:25, 当地时间进行的。

机场观察

风向为290°,速度为5 kt。 风向在260°和320°之间变化。

可见度为10 km 或者更多。

有几云在3.200 ft的高度。 没有观察到天花板。

温度为5 °C,阵风为1 °C。 露点为2 °C,相对湿度为81%。 海平面上的气压为1009 hPa (QNH)。

白天

今天,太阳从06:29升起,在20:58降落。 这适用于Ursel Air Base,世界夏令时可能有所不同。 当地时间与世界标准时间之间的时差为+2 小时。 夏令时目前正在进行中。

公司介绍

在这个机场,你可以找到飞行学校。 本场上唯一已知的公司是Vliegles.nl。

体会

在这个机场有飞行课程。 你可以在没有任何经验的情况下预订飞行课程。 在Ursel Air Base预订最多的飞行课程类型是Tecnam scenic flight Ursel 。 这些课程的价格从€ 69开始。 在这里阅读更多关于Tecnam scenic flight Ursel 的信息。你也可以在这个网站上进行预订。

跑道

Id 标题 侧风 逆风 侧风 %
7/25 067°-247° 3 kt 4 kt 68 %

逆风成分最大的方向会被突出显示,并用于横风计算。 这并不一定意味着这个方向在使用。

乌云

3.200 ft FEW 几云

温度 & 天气

温度 5 °C
露点 2 °C
相对湿度 81%
风寒 1 °C
Kp-index 0 (0-9)

白天

日出
06:27 (3:51)
中午
13:43
日落
20:59

小工具

你想在你的网站上有一个关于Ursel Air Base的当前航空天气(METAR)的小部件吗?

显示HTML代码
报告变更